Time;durP1;ratioP1;P1;durP2;ratioP2;P2;SDS_P1;SDS_P2;PMS_P1;PMS_P2;Temp;Humidity;BMP_temperature;BMP_pressure;BME280_temperature;BME280_humidity;BME280_pressure;Samples;Min_cycle;Max_cycle;Signal;HPM_P1;HPM_P2
2023/12/10 00:00:31;;;;;;;8.85;1.95;;;;;;;14.62;90.25;98777.06;5093236;28;20103;-48
2023/12/10 00:02:57;;;;;;;6.25;1.50;;;;;;;14.60;88.57;98772.00;5093012;28;20478;-47
2023/12/10 00:05:23;;;;;;;3.83;1.58;;;;;;;14.85;90.50;98782.44;5092892;28;20020;-48
2023/12/10 00:07:48;;;;;;;8.68;1.83;;;;;;;14.93;85.34;98781.28;5092858;28;20397;-47
2023/12/10 00:10:14;;;;;;;5.70;2.22;;;;;;;14.89;87.53;98786.25;5091486;28;20112;-47
2023/12/10 00:12:40;;;;;;;6.55;1.73;;;;;;;14.89;88.85;98788.88;5091343;28;20028;-47
2023/12/10 00:15:06;;;;;;;5.22;1.55;;;;;;;14.95;89.92;98785.34;5091320;28;20111;-47
2023/12/10 00:17:32;;;;;;;7.63;1.90;;;;;;;14.88;89.99;98787.25;5092981;28;20445;-48
2023/12/10 00:19:57;;;;;;;11.10;1.88;;;;;;;14.80;91.69;98798.16;5092678;28;20099;-47
2023/12/10 00:22:23;;;;;;;8.63;1.52;;;;;;;14.84;89.18;98809.09;5092562;28;20031;-47
2023/12/10 00:24:49;;;;;;;5.65;1.70;;;;;;;14.85;89.75;98811.50;5090709;28;20489;-48
2023/12/10 00:27:14;;;;;;;6.18;2.47;;;;;;;14.75;90.13;98816.53;5092471;28;20062;-47
2023/12/10 00:29:40;;;;;;;4.88;1.60;;;;;;;14.73;91.06;98822.03;5092505;28;20020;-47
2023/12/10 00:32:06;;;;;;;6.07;1.73;;;;;;;14.77;91.42;98831.13;5091027;28;20036;-47
2023/12/10 00:34:32;;;;;;;4.82;1.70;;;;;;;14.61;91.09;98825.63;5092121;28;20052;-47
2023/12/10 00:36:58;;;;;;;6.88;1.95;;;;;;;14.36;90.01;98837.06;5092343;28;20043;-47
2023/12/10 00:39:23;;;;;;;8.15;2.25;;;;;;;14.10;89.77;98846.88;5091012;28;20031;-47
2023/12/10 00:41:49;;;;;;;4.22;1.48;;;;;;;13.73;90.02;98857.41;5092239;28;20193;-47
2023/12/10 00:44:14;;;;;;;6.38;1.90;;;;;;;13.49;91.90;98856.38;5090935;28;20024;-47
2023/12/10 00:46:40;;;;;;;6.07;1.92;;;;;;;13.52;93.64;98861.25;5092200;28;20016;-47
2023/12/10 00:49:06;;;;;;;7.60;1.70;;;;;;;13.59;94.89;98861.97;5090924;28;20545;-47
2023/12/10 00:51:32;;;;;;;7.50;2.00;;;;;;;13.94;94.44;98877.31;5091997;28;20024;-47
2023/12/10 00:53:58;;;;;;;7.95;2.75;;;;;;;14.07;93.61;98872.94;5090766;28;20023;-47
2023/12/10 00:56:23;;;;;;;7.63;2.28;;;;;;;13.95;93.34;98865.72;5073967;28;20028;-47
2023/12/10 00:58:49;;;;;;;7.18;1.77;;;;;;;13.83;91.21;98869.31;5092085;28;20425;-47
2023/12/10 01:01:14;;;;;;;10.30;2.20;;;;;;;13.82;93.77;98875.59;5091994;28;20023;-47
2023/12/10 01:03:40;;;;;;;5.72;2.50;;;;;;;13.88;93.79;98882.63;5092025;28;20020;-47
2023/12/10 01:06:06;;;;;;;5.35;1.95;;;;;;;13.58;90.27;98878.84;5091936;28;20418;-48
2023/12/10 01:08:32;;;;;;;4.57;1.73;;;;;;;13.22;84.21;98884.75;5090579;28;20031;-47
2023/12/10 01:10:58;;;;;;;7.18;2.00;;;;;;;12.93;88.55;98888.75;5090679;28;20028;-47
2023/12/10 01:13:24;;;;;;;5.90;1.92;;;;;;;12.82;92.58;98895.47;5090574;28;20567;-47
2023/12/10 01:15:54;;;;;;;4.70;1.77;;;;;;;12.72;93.59;98903.81;5090484;28;20525;-47
2023/12/10 01:18:23;;;;;;;6.97;2.13;;;;;;;12.63;94.78;98904.25;5092023;28;20043;-48
2023/12/10 01:20:49;;;;;;;6.43;2.00;;;;;;;12.63;96.25;98910.34;5091767;28;20016;-47
2023/12/10 01:23:14;;;;;;;7.90;1.98;;;;;;;12.64;96.99;98911.16;5091798;28;20099;-47
2023/12/10 01:25:41;;;;;;;9.02;1.80;;;;;;;12.64;97.30;98916.44;5090423;28;20177;-47
2023/12/10 01:28:08;;;;;;;3.85;1.63;;;;;;;12.70;98.27;98913.75;5091693;28;20038;-47
2023/12/10 01:30:34;;;;;;;9.40;1.85;;;;;;;12.93;99.77;98930.88;5090302;28;20401;-47
2023/12/10 01:32:59;;;;;;;8.90;2.78;;;;;;;13.36;98.35;98931.09;5091696;28;20020;-47
2023/12/10 01:35:26;;;;;;;7.22;2.05;;;;;;;13.62;97.21;98926.66;5091486;28;20492;-48
2023/12/10 01:37:52;;;;;;;7.88;3.08;;;;;;;13.81;97.06;98922.28;5093786;28;20385;-47
2023/12/10 01:40:21;;;;;;;8.27;2.55;;;;;;;14.22;96.55;98925.38;5094398;28;20020;-47
2023/12/10 01:42:47;;;;;;;8.70;3.05;;;;;;;14.48;94.77;98933.00;5095705;28;20513;-47
2023/12/10 01:45:13;;;;;;;7.22;2.10;;;;;;;14.34;91.47;98934.19;5094233;28;20031;-47
2023/12/10 01:47:42;;;;;;;5.40;1.83;;;;;;;13.89;84.15;98937.03;5095595;28;20028;-47
2023/12/10 01:50:11;;;;;;;9.63;2.75;;;;;;;13.43;86.24;98943.44;5095535;28;20024;-47
2023/12/10 01:52:38;;;;;;;7.78;2.65;;;;;;;13.25;88.18;98925.66;5095426;28;20485;-47
2023/12/10 01:55:05;;;;;;;8.95;3.35;;;;;;;12.70;81.66;98928.75;5094083;28;20028;-47
2023/12/10 01:57:33;;;;;;;6.88;2.60;;;;;;;12.05;82.04;98937.38;5094100;28;20035;-47
2023/12/10 01:59:59;;;;;;;8.20;2.97;;;;;;;11.75;83.98;98945.66;5095297;28;20020;-47
2023/12/10 02:02:26;;;;;;;10.27;3.20;;;;;;;11.70;89.82;98953.31;5095620;28;20502;-47
2023/12/10 02:04:54;;;;;;;5.68;2.45;;;;;;;11.71;87.30;98949.69;5093947;28;20031;-47
2023/12/10 02:07:23;;;;;;;8.93;3.05;;;;;;;11.50;88.27;98942.78;5095183;28;20028;-47
2023/12/10 02:09:50;;;;;;;8.15;2.72;;;;;;;11.32;90.13;98966.19;5095152;28;20069;-47
2023/12/10 02:12:18;;;;;;;9.38;3.80;;;;;;;11.25;93.33;98966.19;5093622;28;20108;-48
2023/12/10 02:14:44;;;;;;;8.82;2.78;;;;;;;11.20;92.55;98974.63;5095038;28;20016;-48
2023/12/10 02:17:09;;;;;;;10.65;2.20;;;;;;;11.14;86.91;98959.66;5095237;28;20032;-47
2023/12/10 02:19:35;;;;;;;6.82;2.20;;;;;;;11.03;84.90;98972.53;5094975;28;20020;-47
2023/12/10 02:22:02;;;;;;;9.68;2.58;;;;;;;10.86;87.11;98966.81;5093566;28;20036;-47
2023/12/10 02:24:38;;;;;;;8.57;3.13;;;;;;;10.76;90.10;98972.44;5094964;28;20154;-50
2023/12/10 02:27:04;;;;;;;9.43;2.72;;;;;;;10.72;92.90;98958.88;5076967;28;20425;-50
2023/12/10 02:29:30;;;;;;;5.90;2.08;;;;;;;10.89;96.49;98950.69;5094763;28;20016;-50
2023/12/10 02:31:56;;;;;;;10.27;3.47;;;;;;;11.36;96.53;98946.38;5094655;28;20093;-50
2023/12/10 02:34:22;;;;;;;7.22;2.25;;;;;;;11.28;88.66;98933.44;5094434;28;20050;-50
2023/12/10 02:36:48;;;;;;;7.03;2.17;;;;;;;10.99;85.95;98944.06;5094539;28;20502;-50
2023/12/10 02:39:13;;;;;;;6.97;2.13;;;;;;;10.62;86.00;98955.00;5094569;28;20089;-50
2023/12/10 02:41:39;;;;;;;10.85;2.30;;;;;;;10.33;88.10;98956.84;5093183;28;20401;-50
2023/12/10 02:44:05;;;;;;;8.20;2.70;;;;;;;10.16;89.31;98953.66;5094451;28;20031;-50
2023/12/10 02:46:30;;;;;;;8.80;3.15;;;;;;;10.09;90.81;98940.50;5093109;28;20024;-50
2023/12/10 02:48:56;;;;;;;8.07;2.50;;;;;;;10.12;92.75;98944.56;5094056;28;20024;-50
2023/12/10 02:51:21;;;;;;;8.70;3.22;;;;;;;10.22;95.04;98945.03;5094261;28;20024;-50
2023/12/10 02:53:47;;;;;;;9.48;2.42;;;;;;;10.24;92.89;98947.47;5094337;28;20389;-50
2023/12/10 02:56:13;;;;;;;10.55;4.10;;;;;;;10.00;91.00;98941.66;5094205;28;20497;-49
2023/12/10 02:58:38;;;;;;;8.10;3.08;;;;;;;9.94;93.35;98950.25;5094208;28;20024;-49
2023/12/10 03:01:04;;;;;;;10.32;2.45;;;;;;;9.92;94.01;98950.47;5092820;28;20062;-50
2023/12/10 03:03:30;;;;;;;10.38;3.75;;;;;;;9.86;94.74;98939.91;5092839;28;20062;-49
2023/12/10 03:05:56;;;;;;;8.60;2.55;;;;;;;9.79;95.21;98951.16;5094059;28;20436;-50
2023/12/10 03:08:22;;;;;;;8.27;2.40;;;;;;;9.93;97.23;98946.84;5092836;28;20024;-50
2023/12/10 03:10:47;;;;;;;6.25;2.10;;;;;;;9.93;93.22;98930.31;5093915;28;20016;-50
2023/12/10 03:13:13;;;;;;;11.30;2.30;;;;;;;9.75;90.85;98934.19;5092599;28;20030;-50
2023/12/10 03:15:39;;;;;;;9.13;2.50;;;;;;;9.56;92.07;98961.03;5092560;28;20129;-49
2023/12/10 03:18:05;;;;;;;11.43;4.03;;;;;;;9.44;93.51;98959.88;5093823;28;20017;-49
2023/12/10 03:20:31;;;;;;;13.77;3.47;;;;;;;9.58;98.41;98954.59;5092474;28;20085;-50
2023/12/10 03:22:57;;;;;;;9.10;2.83;;;;;;;10.33;100.00;98948.97;5092446;28;20040;-50
2023/12/10 03:25:23;;;;;;;7.45;2.83;;;;;;;10.99;100.00;98944.06;5093696;28;20069;-49
2023/12/10 03:27:48;;;;;;;7.05;2.47;;;;;;;11.10;100.00;98941.88;5093906;28;20052;-50
2023/12/10 03:30:14;;;;;;;5.68;2.15;;;;;;;11.17;96.82;98935.63;5093568;28;20016;-50
2023/12/10 03:32:40;;;;;;;7.65;2.55;;;;;;;10.94;95.38;98943.03;5093510;28;20494;-50
2023/12/10 03:35:06;;;;;;;9.30;3.13;;;;;;;11.15;97.17;98947.34;5093292;28;20044;-50
2023/12/10 03:37:31;;;;;;;12.02;2.88;;;;;;;10.86;93.88;98956.31;5093497;28;20024;-50
2023/12/10 03:39:57;;;;;;;8.73;3.35;;;;;;;10.42;87.68;98942.56;5093433;28;20020;-50
2023/12/10 03:42:23;;;;;;;11.23;3.05;;;;;;;10.15;89.13;98946.81;5093314;28;20036;-50
2023/12/10 03:44:48;;;;;;;8.38;3.10;;;;;;;9.94;88.97;98952.88;5092044;28;20023;-50
2023/12/10 03:47:14;;;;;;;9.65;3.17;;;;;;;9.78;89.64;98970.50;5093319;28;20481;-50
2023/12/10 03:49:40;;;;;;;11.93;3.25;;;;;;;9.66;91.20;98964.16;5093258;28;20032;-50
2023/12/10 03:52:05;;;;;;;7.90;2.67;;;;;;;9.53;91.64;98964.00;5093164;28;20013;-50
2023/12/10 03:54:31;;;;;;;8.27;2.75;;;;;;;9.45;93.35;98974.63;5093240;28;20160;-50
2023/12/10 03:56:57;;;;;;;8.07;2.65;;;;;;;9.52;95.52;98957.97;5093369;28;20074;-49
2023/12/10 03:59:22;;;;;;;9.57;3.10;;;;;;;9.60;97.04;98960.47;5092624;28;20560;-50
2023/12/10 04:01:48;;;;;;;11.13;3.00;;;;;;;9.67;97.14;98952.66;5092639;28;20107;-50
2023/12/10 04:04:14;;;;;;;13.35;3.88;;;;;;;9.63;95.58;98961.09;5092982;28;20172;-50
2023/12/10 04:06:40;;;;;;;12.52;3.08;;;;;;;9.52;96.33;98952.72;5092960;28;20402;-50
2023/12/10 04:09:09;;;;;;;7.97;2.22;;;;;;;9.62;96.80;98962.91;5092781;28;20071;-50
2023/12/10 04:11:36;;;;;;;7.57;2.42;;;;;;;9.54;93.25;98955.97;5074581;28;20623;-50
2023/12/10 04:14:02;;;;;;;10.02;2.95;;;;;;;9.36;93.14;98959.03;5091358;28;20039;-50
2023/12/10 04:16:30;;;;;;;11.35;3.38;;;;;;;9.32;95.82;98965.63;5092705;28;20027;-50
2023/12/10 04:18:56;;;;;;;14.20;3.42;;;;;;;9.40;98.89;98969.94;5092690;28;20498;-50
2023/12/10 04:21:23;;;;;;;7.82;2.92;;;;;;;9.69;100.00;98968.19;5092620;28;20035;-50
2023/12/10 04:23:49;;;;;;;15.45;3.28;;;;;;;10.05;100.00;98980.41;5092624;28;20024;-50
2023/12/10 04:26:16;;;;;;;8.80;2.80;;;;;;;10.36;100.00;98969.56;5091212;28;20031;-50
2023/12/10 04:28:43;;;;;;;7.00;2.50;;;;;;;10.75;100.00;98986.56;5092557;28;20021;-50
2023/12/10 04:31:09;;;;;;;8.93;2.65;;;;;;;11.06;100.00;98996.59;5092398;28;20503;-50
2023/12/10 04:33:35;;;;;;;8.27;2.78;;;;;;;11.58;100.00;98982.00;5092116;28;20026;-51
2023/12/10 04:36:01;;;;;;;7.03;2.00;;;;;;;11.75;100.00;98968.47;5091109;28;20123;-50
2023/12/10 04:38:28;;;;;;;10.63;2.80;;;;;;;11.55;98.60;98965.81;5091177;28;20456;-50
2023/12/10 04:40:54;;;;;;;9.18;3.25;;;;;;;10.95;93.49;98963.84;5092262;28;20020;-50
2023/12/10 04:43:20;;;;;;;8.63;2.58;;;;;;;10.67;96.89;98974.41;5092311;28;20470;-50
2023/12/10 04:45:46;;;;;;;9.32;2.33;;;;;;;10.44;93.80;98976.47;5090934;28;20139;-50
2023/12/10 04:48:12;;;;;;;9.88;2.97;;;;;;;10.30;95.78;98979.03;5090864;28;20111;-50
2023/12/10 04:50:39;;;;;;;10.15;2.42;;;;;;;10.37;98.25;98972.00;5090774;28;20020;-50
2023/12/10 04:53:05;;;;;;;13.73;4.78;;;;;;;11.05;100.00;98988.94;5092083;28;20020;-50
2023/12/10 04:55:30;;;;;;;7.70;2.67;;;;;;;11.46;100.00;99007.25;5092075;28;20024;-50
2023/12/10 04:57:56;;;;;;;9.40;2.63;;;;;;;11.75;99.03;99008.75;5090782;28;20502;-50
2023/12/10 05:00:22;;;;;;;8.43;2.42;;;;;;;11.95;99.18;99000.09;5090994;28;20390;-50
2023/12/10 05:02:47;;;;;;;7.32;2.25;;;;;;;12.42;98.38;99011.44;5091970;28;20024;-50
2023/12/10 05:05:14;;;;;;;9.38;3.28;;;;;;;12.57;95.59;99000.69;5090647;28;20451;-50
2023/12/10 05:07:40;;;;;;;9.63;3.38;;;;;;;12.37;94.78;99000.69;5091927;28;20020;-48
2023/12/10 05:10:06;;;;;;;10.00;3.08;;;;;;;12.37;94.48;98996.28;5091828;28;20107;-48
2023/12/10 05:12:32;;;;;;;12.73;4.50;;;;;;;12.43;93.80;98999.88;5091840;28;20386;-48
2023/12/10 05:14:57;;;;;;;8.27;3.20;;;;;;;12.16;91.65;98997.28;5091843;28;20024;-48
2023/12/10 05:17:23;;;;;;;10.38;2.90;;;;;;;11.73;91.52;98997.63;5090467;28;20042;-48
2023/12/10 05:19:49;;;;;;;9.30;3.25;;;;;;;11.72;94.27;98989.94;5090493;28;20119;-48
2023/12/10 05:22:15;;;;;;;7.97;2.63;;;;;;;11.71;93.09;98990.94;5073780;28;20035;-49
2023/12/10 05:24:41;;;;;;;9.75;3.38;;;;;;;11.63;92.50;98999.84;5091802;28;20016;-48
2023/12/10 05:27:08;;;;;;;9.07;2.92;;;;;;;11.03;88.48;99009.31;5090473;28;20531;-48
2023/12/10 05:29:33;;;;;;;16.17;3.72;;;;;;;10.15;89.16;99007.94;5091785;28;20035;-48
2023/12/10 05:31:59;;;;;;;14.15;3.10;;;;;;;9.51;89.57;99011.34;5091622;28;20506;-48
2023/12/10 05:34:25;;;;;;;19.13;11.35;;;;;;;9.12;93.24;99023.00;5090163;28;20040;-48
2023/12/10 05:36:50;;;;;;;25.50;15.25;;;;;;;9.38;99.17;99021.72;5090300;28;20035;-47
2023/12/10 05:39:16;;;;;;;22.35;12.38;;;;;;;9.74;100.00;99026.13;5090348;28;20027;-50
2023/12/10 05:41:42;;;;;;;14.45;6.82;;;;;;;10.14;100.00;99026.47;5091623;28;20032;-50
2023/12/10 05:44:07;;;;;;;13.05;4.22;;;;;;;10.54;100.00;99032.06;5090268;28;20024;-50
2023/12/10 05:46:34;;;;;;;26.88;11.27;;;;;;;10.86;100.00;99024.59;5091619;28;20383;-50
2023/12/10 05:49:00;;;;;;;25.17;17.73;;;;;;;11.03;99.46;99033.78;5091495;28;20065;-50
2023/12/10 05:51:25;;;;;;;35.35;25.13;;;;;;;11.43;99.28;99033.13;5091441;28;20020;-50
2023/12/10 05:53:51;;;;;;;23.10;18.02;;;;;;;12.04;98.51;99043.63;5091557;28;20032;-50
2023/12/10 05:56:17;;;;;;;14.52;9.60;;;;;;;12.52;95.90;99040.00;5091434;28;20070;-50
2023/12/10 05:58:43;;;;;;;56.55;51.28;;;;;;;12.78;94.63;99037.31;5091393;28;20032;-48
2023/12/10 06:01:09;;;;;;;21.80;11.40;;;;;;;12.61;92.67;99044.00;5091477;28;20051;-48
2023/12/10 06:03:34;;;;;;;18.75;7.72;;;;;;;11.92;89.77;99050.47;5091454;28;20027;-48
2023/12/10 06:06:00;;;;;;;13.25;4.45;;;;;;;11.62;92.63;99055.25;5090047;28;20115;-48
2023/12/10 06:08:26;;;;;;;9.65;3.40;;;;;;;11.78;94.91;99055.66;5090137;28;20036;-48
2023/12/10 06:10:51;;;;;;;12.77;3.17;;;;;;;12.05;94.09;99063.63;5091259;28;20398;-48
2023/12/10 06:13:17;;;;;;;9.10;2.90;;;;;;;12.33;92.43;99060.03;5089992;28;20035;-48
2023/12/10 06:15:46;;;;;;;13.55;3.85;;;;;;;12.09;90.33;99050.91;5091324;28;20034;-48
2023/12/10 06:18:12;;;;;;;11.32;5.78;;;;;;;12.16;91.02;99047.25;5091303;28;20521;-48
2023/12/10 06:20:38;;;;;;;12.90;3.47;;;;;;;11.89;82.63;99049.06;5091286;28;20023;-48
2023/12/10 06:23:03;;;;;;;13.85;3.78;;;;;;;11.23;81.68;99056.69;5090388;28;20036;-48
2023/12/10 06:25:29;;;;;;;14.50;3.40;;;;;;;10.71;84.05;99067.53;5094900;28;20020;-48
2023/12/10 06:27:56;;;;;;;10.32;3.33;;;;;;;10.37;84.29;99057.78;5094811;28;20030;-48
2023/12/10 06:30:23;;;;;;;15.98;5.45;;;;;;;10.20;86.60;99062.44;5093473;28;20393;-48
2023/12/10 06:32:49;;;;;;;8.02;2.95;;;;;;;10.09;85.41;99058.50;5094648;28;20031;-48
2023/12/10 06:35:15;;;;;;;11.63;3.05;;;;;;;9.78;85.63;99058.81;5093112;28;20128;-48
2023/12/10 06:37:41;;;;;;;10.75;3.03;;;;;;;9.65;87.65;99061.28;5094689;28;20099;-48
2023/12/10 06:40:07;;;;;;;9.13;3.00;;;;;;;9.50;89.22;99061.34;5093395;28;20028;-48
2023/12/10 06:42:34;;;;;;;12.05;3.00;;;;;;;9.42;90.14;99058.78;5094547;28;20047;-48
2023/12/10 06:45:01;;;;;;;10.85;3.20;;;;;;;9.33;90.99;99056.28;5093201;28;20085;-48
2023/12/10 06:47:26;;;;;;;16.67;3.70;;;;;;;9.27;90.51;99056.22;5093244;28;20447;-48
2023/12/10 06:49:52;;;;;;;10.15;2.70;;;;;;;9.06;87.03;99055.16;5093091;28;20119;-48
2023/12/10 06:52:18;;;;;;;8.35;2.70;;;;;;;8.82;88.09;99065.91;5094284;28;20103;-48
2023/12/10 06:54:44;;;;;;;9.65;3.17;;;;;;;8.69;90.50;99059.47;5093019;28;20032;-50
2023/12/10 06:57:10;;;;;;;21.00;3.15;;;;;;;8.90;93.53;99066.59;5092916;28;20020;-50
2023/12/10 06:59:36;;;;;;;10.02;4.28;;;;;;;9.11;92.28;99068.50;5094236;28;20077;-50
2023/12/10 07:02:02;;;;;;;12.88;4.25;;;;;;;8.90;87.82;99079.69;5094107;28;20028;-50
2023/12/10 07:04:27;;;;;;;12.68;3.85;;;;;;;8.68;89.19;99077.97;5092824;28;20115;-49
2023/12/10 07:06:53;;;;;;;9.68;3.50;;;;;;;8.55;90.12;99086.41;5094074;28;20394;-50
2023/12/10 07:09:19;;;;;;;14.02;4.32;;;;;;;8.76;93.34;99085.72;5094103;28;20024;-50
2023/12/10 07:11:44;;;;;;;12.20;3.78;;;;;;;9.18;93.55;99084.31;5094154;28;20443;-50
2023/12/10 07:14:10;;;;;;;10.88;3.42;;;;;;;9.15;88.38;99092.53;5092751;28;20367;-50
2023/12/10 07:16:36;;;;;;;9.25;2.67;;;;;;;8.99;88.25;99096.13;5093949;28;20024;-50
2023/12/10 07:19:02;;;;;;;11.77;3.55;;;;;;;9.05;90.57;99091.97;5093856;28;20454;-50
2023/12/10 07:21:27;;;;;;;12.43;3.90;;;;;;;9.22;91.43;99093.44;5093874;28;20036;-50
2023/12/10 07:23:53;;;;;;;18.65;4.25;;;;;;;9.26;92.00;99092.06;5093778;28;20024;-50
2023/12/10 07:26:25;;;;;;;11.02;3.53;;;;;;;9.55;93.43;99090.41;5093724;28;20012;-50
2023/12/10 07:28:51;;;;;;;11.18;2.78;;;;;;;10.07;93.64;99089.34;5092330;28;20065;-50
2023/12/10 07:31:18;;;;;;;11.55;2.95;;;;;;;10.63;92.73;99093.09;5093539;28;20024;-50
2023/12/10 07:33:44;;;;;;;9.77;3.28;;;;;;;11.35;90.88;99091.94;5091964;28;20031;-51
2023/12/10 07:36:10;;;;;;;13.23;3.33;;;;;;;11.48;87.75;99091.97;5092360;28;20028;-50
2023/12/10 07:38:36;;;;;;;10.93;3.03;;;;;;;11.18;84.48;99097.50;5093474;28;20416;-50
2023/12/10 07:41:02;;;;;;;10.70;3.15;;;;;;;10.74;83.34;99098.63;5093394;28;20509;-50
2023/12/10 07:43:28;;;;;;;11.55;4.13;;;;;;;10.29;81.49;99098.03;5093415;28;20026;-50
2023/12/10 07:45:53;;;;;;;12.10;3.28;;;;;;;9.98;82.93;99100.97;5091960;28;20089;-50
2023/12/10 07:48:20;;;;;;;9.93;3.47;;;;;;;9.68;83.39;99105.47;5093338;28;20025;-50
2023/12/10 07:50:46;;;;;;;6.68;3.28;;;;;;;9.49;85.99;99105.03;5093414;28;20024;-50
2023/12/10 07:53:12;;;;;;;13.82;3.67;;;;;;;9.67;87.09;99109.91;5093157;28;20020;-50
2023/12/10 07:55:37;;;;;;;14.40;3.78;;;;;;;9.71;85.58;99115.59;5091848;28;20031;-50
2023/12/10 07:58:03;;;;;;;11.02;3.58;;;;;;;9.58;83.30;99111.00;5093065;28;20024;-50
2023/12/10 08:00:29;;;;;;;9.18;3.13;;;;;;;9.48;82.10;99107.88;5093066;28;20013;-50
2023/12/10 08:02:55;;;;;;;13.48;4.40;;;;;;;9.42;83.40;99113.81;5091739;28;20020;-50
2023/12/10 08:05:21;;;;;;;12.48;4.10;;;;;;;9.54;84.87;99115.81;5093168;28;20154;-50
2023/12/10 08:07:46;;;;;;;11.07;3.83;;;;;;;9.85;84.83;99112.13;5091570;28;20052;-50
2023/12/10 08:10:13;;;;;;;12.27;4.25;;;;;;;9.90;83.05;99116.81;5092901;28;20052;-50
2023/12/10 08:12:39;;;;;;;16.70;4.40;;;;;;;10.15;84.29;99112.84;5092709;28;20039;-50
2023/12/10 08:15:05;;;;;;;12.23;4.10;;;;;;;10.43;83.74;99108.69;5091373;28;20371;-50
2023/12/10 08:17:31;;;;;;;15.88;4.35;;;;;;;10.86;84.38;99122.53;5092751;28;20398;-50
2023/12/10 08:19:57;;;;;;;13.07;4.13;;;;;;;11.67;81.65;99116.75;5091339;28;20034;-49
2023/12/10 08:22:22;;;;;;;14.23;3.28;;;;;;;12.21;77.15;99114.25;5092637;28;20023;-48
2023/12/10 08:24:48;;;;;;;13.30;3.83;;;;;;;12.42;71.78;99115.94;5092613;28;20490;-48
2023/12/10 08:27:14;;;;;;;14.45;3.80;;;;;;;12.53;69.58;99117.94;5091271;28;20024;-48
2023/12/10 08:29:40;;;;;;;9.20;3.40;;;;;;;12.56;67.20;99114.91;5092573;28;20531;-48
2023/12/10 08:32:06;;;;;;;11.20;4.43;;;;;;;12.54;66.16;99115.09;5091221;28;20024;-48
2023/12/10 08:34:31;;;;;;;10.38;3.35;;;;;;;12.68;68.10;99110.66;5092147;28;20044;-48
2023/12/10 08:36:57;;;;;;;10.00;3.50;;;;;;;13.06;69.44;99122.34;5091095;28;20028;-48
2023/12/10 08:39:23;;;;;;;13.30;3.53;;;;;;;13.43;69.58;99120.09;5091095;28;20028;-48
2023/12/10 08:41:49;;;;;;;8.82;3.63;;;;;;;13.74;68.40;99124.59;5090952;28;20082;-48
2023/12/10 08:44:15;;;;;;;11.73;4.05;;;;;;;14.08;67.79;99133.97;5092320;28;20028;-48
2023/12/10 08:46:41;;;;;;;14.13;5.43;;;;;;;14.26;66.79;99135.09;5090530;28;20027;-48
2023/12/10 08:49:07;;;;;;;11.63;4.55;;;;;;;13.73;64.12;99133.56;5092254;28;20114;-48
2023/12/10 08:51:32;;;;;;;11.70;4.47;;;;;;;13.43;64.35;99135.91;5092155;28;20513;-48
2023/12/10 08:54:01;;;;;;;14.40;4.47;;;;;;;13.51;65.55;99133.03;5090791;28;20035;-48
2023/12/10 08:56:27;;;;;;;16.05;5.20;;;;;;;13.47;63.88;99123.91;5092132;28;20018;-48
2023/12/10 08:58:53;;;;;;;15.20;4.55;;;;;;;13.43;64.10;99122.72;5090758;28;20405;-48
2023/12/10 09:01:18;;;;;;;12.52;3.95;;;;;;;13.90;61.87;99120.69;5092093;28;20032;-49
2023/12/10 09:03:45;;;;;;;17.23;4.75;;;;;;;14.24;60.54;99110.75;5092024;28;20107;-48
2023/12/10 09:06:12;;;;;;;13.05;4.10;;;;;;;14.78;61.14;99104.06;5091975;28;20028;-48
2023/12/10 09:08:38;;;;;;;9.65;4.15;;;;;;;15.53;61.30;99103.88;5090691;28;20111;-48
2023/12/10 09:11:04;;;;;;;15.63;4.93;;;;;;;16.29;58.84;99112.22;5091912;28;20085;-48
2023/12/10 09:13:35;;;;;;;13.70;4.70;;;;;;;16.39;57.23;99116.97;5091924;28;20560;-48
2023/12/10 09:16:01;;;;;;;9.60;4.30;;;;;;;16.70;55.42;99107.09;5091895;28;20058;-48
2023/12/10 09:18:27;;;;;;;9.85;3.65;;;;;;;17.30;55.37;99111.38;5090529;28;20070;-48
2023/12/10 09:20:54;;;;;;;13.38;4.50;;;;;;;17.91;53.33;99106.50;5073712;28;20113;-48
2023/12/10 09:23:21;;;;;;;11.95;4.28;;;;;;;17.90;50.42;99115.50;5090631;28;20032;-48
2023/12/10 09:25:47;;;;;;;13.27;4.80;;;;;;;17.44;51.63;99111.94;5091792;28;20051;-48
2023/12/10 09:28:12;;;;;;;13.32;4.15;;;;;;;17.40;53.12;99116.09;5091802;28;20028;-48
2023/12/10 09:30:38;;;;;;;12.35;4.47;;;;;;;17.92;53.25;99113.41;5091742;28;20394;-48
2023/12/10 09:33:05;;;;;;;10.77;3.90;;;;;;;18.39;51.21;99110.53;5090322;28;20166;-46
2023/12/10 09:35:31;;;;;;;14.20;4.18;;;;;;;18.46;50.49;99108.50;5091511;28;20538;-46
2023/12/10 09:37:57;;;;;;;13.32;4.32;;;;;;;18.61;50.04;99104.47;5090313;28;20030;-46
2023/12/10 09:40:23;;;;;;;14.77;4.70;;;;;;;19.02;50.63;99105.91;5091669;28;20031;-46
2023/12/10 09:42:48;;;;;;;61.10;19.25;;;;;;;19.53;49.49;99111.88;5090459;28;20066;-46
2023/12/10 09:45:14;;;;;;;26.60;8.00;;;;;;;20.02;48.61;99103.13;5091554;28;20039;-46
2023/12/10 09:47:44;;;;;;;10.77;4.45;;;;;;;20.45;48.10;99111.22;5091572;28;20127;-46
2023/12/10 09:50:09;;;;;;;10.38;3.83;;;;;;;20.75;46.31;99100.00;5090249;28;20138;-46
2023/12/10 09:52:35;;;;;;;15.05;5.03;;;;;;;20.80;45.90;99093.88;5091521;28;20518;-46
2023/12/10 09:55:01;;;;;;;11.10;4.30;;;;;;;20.99;45.65;99100.41;5091756;28;20051;-46
2023/12/10 09:57:29;;;;;;;13.60;4.43;;;;;;;21.13;46.37;99090.88;5091484;28;20065;-46
2023/12/10 09:59:55;;;;;;;13.68;5.22;;;;;;;21.24;45.44;99081.03;5094930;28;20024;-46
2023/12/10 10:02:20;;;;;;;14.98;5.32;;;;;;;21.29;44.55;99078.41;5095370;28;20032;-46
2023/12/10 10:04:46;;;;;;;11.27;4.75;;;;;;;21.05;44.62;99078.03;5094076;28;20053;-46
2023/12/10 10:07:14;;;;;;;13.40;4.72;;;;;;;20.94;45.16;99082.50;5095274;28;20513;-46
2023/12/10 10:09:39;;;;;;;12.60;4.32;;;;;;;21.24;44.76;99080.25;5095234;28;20031;-46
2023/12/10 10:12:07;;;;;;;11.32;4.43;;;;;;;21.59;44.04;99086.78;5095122;28;20024;-46
2023/12/10 10:14:33;;;;;;;11.20;5.07;;;;;;;22.03;43.40;99081.81;5095155;28;20020;-46
2023/12/10 10:16:59;;;;;;;14.82;4.85;;;;;;;22.31;42.17;99079.72;5095064;28;20481;-46
2023/12/10 10:19:26;;;;;;;9.35;4.30;;;;;;;22.29;41.68;99079.19;5094997;28;20024;-46
2023/12/10 10:21:53;;;;;;;13.50;4.20;;;;;;;22.47;39.86;99081.31;5093710;28;20099;-46
2023/12/10 10:24:19;;;;;;;14.93;4.43;;;;;;;22.34;39.17;99080.00;5094902;28;20024;-46
2023/12/10 10:26:44;;;;;;;13.05;4.38;;;;;;;21.85;38.50;99085.81;5094878;28;20402;-46
2023/12/10 10:29:10;;;;;;;13.05;4.75;;;;;;;21.34;39.33;99081.06;5094858;28;20028;-46
2023/12/10 10:31:36;;;;;;;11.05;4.72;;;;;;;21.31;40.16;99068.25;5094703;28;20020;-46
2023/12/10 10:34:06;;;;;;;12.57;4.45;;;;;;;21.42;39.71;99065.63;5094459;28;20051;-47
2023/12/10 10:36:32;;;;;;;13.18;4.43;;;;;;;21.53;40.03;99059.25;5094710;28;20579;-46
2023/12/10 10:38:58;;;;;;;16.30;4.53;;;;;;;21.66;39.91;99058.78;5094670;28;20096;-46
2023/12/10 10:41:26;;;;;;;15.05;5.40;;;;;;;21.81;39.47;99050.00;5094594;28;20028;-46
2023/12/10 10:43:52;;;;;;;17.08;4.53;;;;;;;21.70;39.10;99041.16;5094564;28;20513;-46
2023/12/10 10:46:21;;;;;;;17.23;4.70;;;;;;;21.85;39.35;99039.56;5093238;28;20402;-46
2023/12/10 10:48:51;;;;;;;10.90;3.97;;;;;;;22.29;38.63;99029.16;5094464;28;20105;-46
2023/12/10 10:51:29;;;;;;;12.73;4.07;;;;;;;22.73;37.78;99025.09;5093123;28;20513;-46
2023/12/10 10:53:57;;;;;;;11.05;4.30;;;;;;;23.24;36.96;99016.09;5094413;28;20401;-46
2023/12/10 10:56:24;;;;;;;9.98;3.85;;;;;;;23.50;35.54;99009.53;5094304;28;20027;-46
2023/12/10 10:58:49;;;;;;;7.95;3.60;;;;;;;23.83;35.10;99017.91;5094383;28;20099;-47
2023/12/10 11:01:43;;;;;;;11.40;4.32;;;;;;;23.83;34.92;99011.75;5094271;28;20100;-47
2023/12/10 11:04:13;;;;;;;10.15;4.30;;;;;;;24.04;33.56;98997.09;5094236;28;20024;-46
2023/12/10 11:06:40;;;;;;;10.07;3.38;;;;;;;23.60;32.32;98992.56;5092910;28;20020;-46
2023/12/10 11:09:07;;;;;;;10.85;3.00;;;;;;;23.21;31.05;98998.72;5092361;28;20020;-46
2023/12/10 11:11:40;;;;;;;10.95;3.13;;;;;;;22.91;31.46;98994.25;5092659;28;20027;-46
2023/12/10 11:14:22;;;;;;;10.38;3.13;;;;;;;22.10;30.59;98990.69;5093897;28;20024;-47
2023/12/10 11:17:01;;;;;;;16.27;3.50;;;;;;;21.35;31.75;98975.91;5094029;28;20024;-46
2023/12/10 11:19:28;;;;;;;11.57;3.40;;;;;;;20.85;32.06;98972.00;5093946;28;20081;-46
2023/12/10 11:21:57;;;;;;;7.97;2.30;;;;;;;20.40;32.97;98961.88;5093854;28;20593;-46
2023/12/10 11:24:23;;;;;;;8.35;3.13;;;;;;;19.94;33.52;98957.03;5093810;28;20082;-46